createdAt,value
2018-09-30T00:00:26.090Z,11.33
2018-09-30T00:02:54.398Z,11.31
2018-09-30T00:05:22.629Z,11.28
2018-09-30T00:07:51.099Z,11.26
2018-09-30T00:10:19.316Z,11.25
2018-09-30T00:12:47.575Z,11.24
2018-09-30T00:15:15.724Z,11.26
2018-09-30T00:17:43.880Z,11.27
2018-09-30T00:20:12.067Z,11.30
2018-09-30T00:22:40.236Z,11.32
2018-09-30T00:25:13.823Z,11.31
2018-09-30T00:27:42.004Z,11.27
2018-09-30T00:30:10.223Z,11.20
2018-09-30T00:32:39.263Z,11.11
2018-09-30T00:35:07.461Z,11.03
2018-09-30T00:37:35.640Z,11.01
2018-09-30T00:40:03.834Z,10.99
2018-09-30T00:42:32.008Z,10.95
2018-09-30T00:45:00.292Z,10.89
2018-09-30T00:47:28.603Z,10.84
2018-09-30T00:49:56.847Z,10.80
2018-09-30T00:52:25.003Z,10.73
2018-09-30T00:54:53.183Z,10.68
2018-09-30T00:57:21.447Z,10.63
2018-09-30T00:59:49.679Z,10.64
2018-09-30T01:02:17.919Z,10.64
2018-09-30T01:04:46.103Z,10.61
2018-09-30T01:07:14.308Z,10.53
2018-09-30T01:09:42.558Z,10.49
2018-09-30T01:12:10.743Z,10.44
2018-09-30T01:14:38.922Z,10.42
2018-09-30T01:17:07.083Z,10.41
2018-09-30T01:19:35.283Z,10.35
2018-09-30T01:22:03.514Z,10.28
2018-09-30T01:24:31.727Z,10.21
2018-09-30T01:26:59.939Z,10.19
2018-09-30T01:29:28.212Z,10.17
2018-09-30T01:31:56.363Z,10.17
2018-09-30T01:34:24.762Z,10.20
2018-09-30T01:36:52.951Z,10.25
2018-09-30T01:39:21.140Z,10.30
2018-09-30T01:41:49.318Z,10.33
2018-09-30T01:44:17.500Z,10.32
2018-09-30T01:46:45.706Z,10.29
2018-09-30T01:49:13.885Z,10.22
2018-09-30T01:51:42.104Z,10.16
2018-09-30T01:54:10.276Z,10.10
2018-09-30T01:56:38.540Z,10.06
2018-09-30T01:59:06.779Z,10.06
2018-09-30T02:01:34.976Z,10.06
2018-09-30T02:04:03.174Z,10.06
2018-09-30T02:06:31.383Z,10.03
2018-09-30T02:08:59.592Z,10.01
2018-09-30T02:11:27.828Z,9.96
2018-09-30T02:13:56.078Z,9.93
2018-09-30T02:16:24.651Z,9.90
2018-09-30T02:18:52.837Z,9.88
2018-09-30T02:21:20.999Z,9.91
2018-09-30T02:23:49.190Z,9.88
2018-09-30T02:26:17.359Z,9.88
2018-09-30T02:28:45.536Z,9.86
2018-09-30T02:31:13.882Z,9.85
2018-09-30T02:33:42.074Z,9.90
2018-09-30T02:36:10.278Z,9.92
2018-09-30T02:38:38.493Z,9.87
2018-09-30T02:41:06.687Z,9.85
2018-09-30T02:43:34.905Z,9.88
2018-09-30T02:46:03.110Z,9.87
2018-09-30T02:48:31.403Z,9.83
2018-09-30T02:50:59.868Z,9.83
2018-09-30T02:53:32.219Z,9.81
2018-09-30T02:56:00.379Z,9.76
2018-09-30T02:58:28.572Z,9.73
2018-09-30T03:00:56.758Z,9.70
2018-09-30T03:03:24.925Z,9.69
2018-09-30T03:05:53.087Z,9.68
2018-09-30T03:08:26.523Z,9.71
2018-09-30T03:10:54.751Z,9.71
2018-09-30T03:13:23.058Z,9.67
2018-09-30T03:15:51.247Z,9.63
2018-09-30T03:18:19.475Z,9.62
2018-09-30T03:20:47.651Z,9.62
2018-09-30T03:23:15.813Z,9.63
2018-09-30T03:25:43.978Z,9.63
2018-09-30T03:28:12.256Z,9.64
2018-09-30T03:30:40.459Z,9.66
2018-09-30T03:33:08.615Z,9.67
2018-09-30T03:35:36.775Z,9.71
2018-09-30T03:38:04.994Z,9.76
2018-09-30T03:40:33.202Z,9.81
2018-09-30T03:43:01.375Z,9.87
2018-09-30T03:45:29.566Z,9.87
2018-09-30T03:47:57.783Z,9.83
2018-09-30T03:50:25.940Z,9.80
2018-09-30T03:52:54.136Z,9.75
2018-09-30T03:55:22.334Z,9.71
2018-09-30T03:57:50.545Z,9.70
2018-09-30T04:00:19.168Z,9.71
2018-09-30T04:02:47.346Z,9.70
2018-09-30T04:05:15.603Z,9.67
2018-09-30T04:07:43.775Z,9.68
2018-09-30T04:10:12.046Z,9.70
2018-09-30T04:12:40.123Z,9.68
2018-09-30T04:15:08.363Z,9.69
2018-09-30T04:17:36.524Z,9.72
2018-09-30T04:20:04.723Z,9.74
2018-09-30T04:22:32.887Z,9.76
2018-09-30T04:25:01.067Z,9.76
2018-09-30T04:27:29.263Z,9.74
2018-09-30T04:29:57.452Z,9.72
2018-09-30T04:32:25.635Z,9.63
2018-09-30T04:34:53.806Z,9.57
2018-09-30T04:37:21.982Z,9.53
2018-09-30T04:39:50.217Z,9.50
2018-09-30T04:42:19.021Z,9.46
2018-09-30T04:44:47.299Z,9.42
2018-09-30T04:47:15.471Z,9.38
2018-09-30T04:49:43.665Z,9.34
2018-09-30T04:52:11.835Z,9.33
2018-09-30T04:54:40.647Z,9.31
2018-09-30T04:57:08.847Z,9.30
2018-09-30T04:59:37.051Z,9.27
2018-09-30T05:02:05.243Z,9.25
2018-09-30T05:04:34.032Z,9.23
2018-09-30T05:07:02.265Z,9.21
2018-09-30T05:09:30.519Z,9.19
2018-09-30T05:11:58.700Z,9.18
2018-09-30T05:14:26.846Z,9.19
2018-09-30T05:16:55.218Z,9.17
2018-09-30T05:19:23.410Z,9.17
2018-09-30T05:21:51.629Z,9.21
2018-09-30T05:24:19.782Z,9.18
2018-09-30T05:26:47.972Z,9.16
2018-09-30T05:29:16.130Z,9.17
2018-09-30T05:31:44.364Z,9.18
2018-09-30T05:34:12.604Z,9.15
2018-09-30T05:36:40.796Z,9.11
2018-09-30T05:39:10.018Z,9.04
2018-09-30T05:41:38.815Z,9.01
2018-09-30T05:44:07.674Z,8.94
2018-09-30T05:46:35.859Z,8.90
2018-09-30T05:49:04.200Z,8.87
2018-09-30T05:51:32.547Z,8.91
2018-09-30T05:54:00.715Z,8.97
2018-09-30T05:56:28.994Z,9.01
2018-09-30T05:58:57.189Z,9.07
2018-09-30T06:01:25.478Z,9.09
2018-09-30T06:03:53.862Z,9.11
2018-09-30T06:06:22.157Z,9.14
2018-09-30T06:08:50.382Z,9.14
2018-09-30T06:11:18.588Z,9.16
2018-09-30T06:13:47.161Z,9.16
2018-09-30T06:16:15.240Z,9.14
2018-09-30T06:18:43.438Z,9.14
2018-09-30T06:21:11.619Z,9.15
2018-09-30T06:23:39.836Z,9.14
2018-09-30T06:26:07.978Z,9.11
2018-09-30T06:28:36.208Z,9.10
2018-09-30T06:31:04.396Z,9.16
2018-09-30T06:33:33.443Z,9.18
2018-09-30T06:36:01.640Z,9.21
2018-09-30T06:38:29.839Z,9.21
2018-09-30T06:40:58.065Z,9.23
2018-09-30T06:43:26.308Z,9.27
2018-09-30T06:45:54.493Z,9.29
2018-09-30T06:48:22.779Z,9.34
2018-09-30T06:50:51.307Z,9.42
2018-09-30T06:53:19.505Z,9.46
2018-09-30T06:55:47.743Z,9.48
2018-09-30T06:58:15.962Z,9.49
2018-09-30T07:00:44.186Z,9.53
2018-09-30T07:03:13.102Z,9.56
2018-09-30T07:05:41.311Z,9.61
2018-09-30T07:08:09.506Z,9.63
2018-09-30T07:10:37.785Z,9.68
2018-09-30T07:13:06.170Z,9.71
2018-09-30T07:15:34.470Z,9.75
2018-09-30T07:18:02.656Z,9.80
2018-09-30T07:20:30.860Z,9.86
2018-09-30T07:22:59.043Z,9.90
2018-09-30T07:25:27.191Z,9.95
2018-09-30T07:27:55.399Z,10.01
2018-09-30T07:30:23.611Z,10.07
2018-09-30T07:32:51.820Z,10.13
2018-09-30T07:35:20.009Z,10.18
2018-09-30T07:37:48.636Z,10.25
2018-09-30T07:40:17.319Z,10.34
2018-09-30T07:42:45.502Z,10.43
2018-09-30T07:45:14.287Z,10.51
2018-09-30T07:47:43.159Z,10.57
2018-09-30T07:50:11.342Z,10.62
2018-09-30T07:52:39.586Z,10.68
2018-09-30T07:55:07.725Z,10.75
2018-09-30T07:57:35.895Z,10.81
2018-09-30T08:00:05.401Z,10.86
2018-09-30T08:02:33.576Z,10.90
2018-09-30T08:05:01.755Z,10.95
2018-09-30T08:07:30.627Z,11.01
2018-09-30T08:09:59.471Z,11.04
2018-09-30T08:12:28.317Z,11.10
2018-09-30T08:14:56.551Z,11.13
2018-09-30T08:17:24.759Z,11.16
2018-09-30T08:19:52.944Z,11.19
2018-09-30T08:22:21.130Z,11.22
2018-09-30T08:24:49.355Z,11.25
2018-09-30T08:27:17.549Z,11.30
2018-09-30T08:29:46.392Z,11.34
2018-09-30T08:32:14.586Z,11.39
2018-09-30T08:34:42.786Z,11.44
2018-09-30T08:37:11.091Z,11.48
2018-09-30T08:39:39.980Z,11.51
2018-09-30T08:42:08.111Z,11.48
2018-09-30T08:44:36.314Z,11.50
2018-09-30T08:47:04.743Z,11.55
2018-09-30T08:49:32.954Z,11.60
2018-09-30T08:52:01.545Z,11.66
2018-09-30T08:54:29.795Z,11.71
2018-09-30T08:56:58.009Z,11.74
2018-09-30T08:59:26.175Z,11.80
2018-09-30T09:01:54.337Z,11.85
2018-09-30T09:04:22.652Z,11.87
2018-09-30T09:06:51.205Z,11.89
2018-09-30T09:09:19.422Z,11.91
2018-09-30T09:11:47.610Z,11.94
2018-09-30T09:14:15.791Z,11.98
2018-09-30T09:16:44.548Z,12.04
2018-09-30T09:19:12.828Z,12.06
2018-09-30T09:21:41.511Z,12.11
2018-09-30T09:24:09.735Z,12.13
2018-09-30T09:26:37.920Z,12.11
2018-09-30T09:29:06.174Z,12.16
2018-09-30T09:31:34.420Z,12.22
2018-09-30T09:34:02.674Z,12.30
2018-09-30T09:36:33.806Z,12.37
2018-09-30T09:39:02.872Z,12.45
2018-09-30T09:41:31.476Z,12.53
2018-09-30T09:43:59.661Z,12.63
2018-09-30T09:46:27.919Z,12.73
2018-09-30T09:48:56.078Z,12.86
2018-09-30T09:51:24.354Z,13.03
2018-09-30T09:53:52.889Z,13.25
2018-09-30T09:56:21.353Z,13.48
2018-09-30T09:58:49.615Z,13.70
2018-09-30T10:01:17.804Z,13.87
2018-09-30T10:03:46.538Z,14.04
2018-09-30T10:06:14.795Z,14.21
2018-09-30T10:08:43.002Z,14.38
2018-09-30T10:11:11.216Z,14.53
2018-09-30T10:13:39.399Z,14.69
2018-09-30T10:16:07.636Z,14.84
2018-09-30T10:18:42.159Z,14.99
2018-09-30T10:21:10.357Z,15.12
2018-09-30T10:23:39.577Z,15.26
2018-09-30T10:26:07.747Z,15.38
2018-09-30T10:28:35.947Z,15.46
2018-09-30T10:31:04.911Z,15.57
2018-09-30T10:33:33.144Z,15.64
2018-09-30T10:36:01.338Z,15.72
2018-09-30T10:38:29.546Z,15.83
2018-09-30T10:40:57.717Z,15.95
2018-09-30T10:43:25.907Z,16.04
2018-09-30T10:45:54.105Z,16.11
2018-09-30T10:48:22.389Z,16.16
2018-09-30T10:50:50.549Z,16.27
2018-09-30T10:53:19.301Z,16.37
2018-09-30T10:55:47.465Z,16.48
2018-09-30T10:58:16.228Z,16.59
2018-09-30T11:00:44.494Z,16.67
2018-09-30T11:03:12.723Z,16.75
2018-09-30T11:05:40.932Z,16.83
2018-09-30T11:08:09.103Z,16.91
2018-09-30T11:10:37.309Z,16.96
2018-09-30T11:13:05.628Z,16.98
2018-09-30T11:15:33.834Z,17.06
2018-09-30T11:18:02.009Z,17.15
2018-09-30T11:20:30.242Z,17.23
2018-09-30T11:22:58.463Z,17.32
2018-09-30T11:25:26.745Z,17.37
2018-09-30T11:27:55.220Z,17.42
2018-09-30T11:30:30.151Z,17.47
2018-09-30T11:32:58.363Z,17.56
2018-09-30T11:35:26.600Z,17.67
2018-09-30T11:37:54.876Z,17.75
2018-09-30T11:40:23.111Z,17.86
2018-09-30T11:42:51.312Z,17.98
2018-09-30T11:45:19.499Z,18.09
2018-09-30T11:47:47.766Z,18.20
2018-09-30T11:50:16.093Z,18.30
2018-09-30T11:52:44.397Z,18.38
2018-09-30T11:55:12.611Z,18.44
2018-09-30T11:57:40.821Z,18.54
2018-09-30T12:00:09.147Z,18.64
2018-09-30T12:02:37.366Z,18.77
2018-09-30T12:05:05.646Z,18.84
2018-09-30T12:07:33.846Z,18.85
2018-09-30T12:10:02.305Z,18.86
2018-09-30T12:12:30.545Z,18.94
2018-09-30T12:14:59.475Z,18.98
2018-09-30T12:17:27.696Z,19.09
2018-09-30T12:19:55.929Z,19.25
2018-09-30T12:22:24.134Z,19.30
2018-09-30T12:24:52.367Z,19.28
2018-09-30T12:27:20.619Z,19.38
2018-09-30T12:29:48.836Z,19.46
2018-09-30T12:32:17.001Z,19.57
2018-09-30T12:34:45.355Z,19.71
2018-09-30T12:37:13.618Z,19.86
2018-09-30T12:39:41.841Z,20.01
2018-09-30T12:42:10.022Z,20.11
2018-09-30T12:44:38.219Z,20.20
2018-09-30T12:47:06.424Z,20.36
2018-09-30T12:49:34.802Z,20.57
2018-09-30T12:52:02.984Z,20.65
2018-09-30T12:54:31.219Z,20.74
2018-09-30T12:56:59.431Z,21.01
2018-09-30T12:59:27.635Z,21.24
2018-09-30T13:01:55.914Z,21.31
2018-09-30T13:04:24.163Z,21.45
2018-09-30T13:06:52.378Z,21.49
2018-09-30T13:09:20.588Z,21.36
2018-09-30T13:11:48.847Z,21.01
2018-09-30T13:14:17.100Z,20.67
2018-09-30T13:16:45.307Z,20.33
2018-09-30T13:19:13.498Z,19.97
2018-09-30T13:21:41.730Z,19.66
2018-09-30T13:24:09.997Z,19.39
2018-09-30T13:26:38.230Z,19.16
2018-09-30T13:29:06.562Z,18.93
2018-09-30T13:31:34.826Z,18.76
2018-09-30T13:34:03.031Z,18.66
2018-09-30T13:36:31.255Z,18.54
2018-09-30T13:38:59.455Z,18.51
2018-09-30T13:41:27.667Z,18.60
2018-09-30T13:43:55.859Z,18.57
2018-09-30T13:46:24.036Z,18.47
2018-09-30T13:48:52.288Z,18.38
2018-09-30T13:51:20.661Z,18.30
2018-09-30T13:53:48.808Z,18.24
2018-09-30T13:56:17.039Z,18.21
2018-09-30T13:58:45.227Z,18.25
2018-09-30T14:01:13.649Z,18.35
2018-09-30T14:03:41.876Z,18.40
2018-09-30T14:06:10.155Z,18.38
2018-09-30T14:08:38.338Z,18.34
2018-09-30T14:11:06.563Z,18.37
2018-09-30T14:13:34.785Z,18.37
2018-09-30T14:16:03.019Z,18.35
2018-09-30T14:18:31.215Z,18.37
2018-09-30T14:20:59.403Z,18.47
2018-09-30T14:23:27.570Z,18.55
2018-09-30T14:25:55.750Z,18.50
2018-09-30T14:28:24.016Z,18.44
2018-09-30T14:30:52.249Z,18.46
2018-09-30T14:33:20.423Z,18.53
2018-09-30T14:35:48.653Z,18.50
2018-09-30T14:38:16.887Z,18.45
2018-09-30T14:40:45.188Z,18.37
2018-09-30T14:43:16.365Z,18.30
2018-09-30T14:45:44.595Z,18.23
2018-09-30T14:48:12.885Z,18.18
2018-09-30T14:50:41.039Z,18.11
2018-09-30T14:53:09.241Z,18.07
2018-09-30T14:55:37.460Z,18.01
2018-09-30T14:58:05.701Z,17.99
2018-09-30T15:00:33.883Z,17.97
2018-09-30T15:03:02.142Z,17.91
2018-09-30T15:05:30.331Z,17.87
2018-09-30T15:07:58.559Z,17.84
2018-09-30T15:10:26.776Z,17.79
2018-09-30T15:12:55.037Z,17.75
2018-09-30T15:15:23.497Z,17.71
2018-09-30T15:17:51.715Z,17.69
2018-09-30T15:20:19.954Z,17.67
2018-09-30T15:22:48.239Z,17.67
2018-09-30T15:25:16.454Z,17.65
2018-09-30T15:27:44.715Z,17.64
2018-09-30T15:30:12.990Z,17.61
2018-09-30T15:32:41.380Z,17.61
2018-09-30T15:35:09.571Z,17.61
2018-09-30T15:37:37.758Z,17.61
2018-09-30T15:40:06.403Z,17.59
2018-09-30T15:42:34.584Z,17.54
2018-09-30T15:45:02.937Z,17.51
2018-09-30T15:47:31.210Z,17.50
2018-09-30T15:49:59.420Z,17.44
2018-09-30T15:52:27.703Z,17.40
2018-09-30T15:54:56.073Z,17.40
2018-09-30T15:57:24.428Z,17.38
2018-09-30T15:59:52.699Z,17.36
2018-09-30T16:02:21.298Z,17.32
2018-09-30T16:04:49.512Z,17.30
2018-09-30T16:07:17.676Z,17.27
2018-09-30T16:09:45.865Z,17.23
2018-09-30T16:12:14.035Z,17.19
2018-09-30T16:14:42.995Z,17.16
2018-09-30T16:17:11.196Z,17.14
2018-09-30T16:19:39.378Z,17.14
2018-09-30T16:22:07.584Z,17.10
2018-09-30T16:24:35.963Z,17.08
2018-09-30T16:27:04.135Z,17.04
2018-09-30T16:29:32.347Z,17.02
2018-09-30T16:32:00.591Z,16.99
2018-09-30T16:34:28.818Z,16.96
2018-09-30T16:36:57.020Z,16.95
2018-09-30T16:39:25.259Z,16.92
2018-09-30T16:41:53.455Z,16.86
2018-09-30T16:44:21.913Z,16.79
2018-09-30T16:46:50.217Z,16.71
2018-09-30T16:49:18.415Z,16.68
2018-09-30T16:51:46.635Z,16.63
2018-09-30T16:54:14.832Z,16.54
2018-09-30T16:56:43.032Z,16.46
2018-09-30T16:59:11.231Z,16.36
2018-09-30T17:01:39.429Z,16.25
2018-09-30T17:04:07.644Z,16.15
2018-09-30T17:06:35.913Z,16.07
2018-09-30T17:09:05.294Z,16.00
2018-09-30T17:11:33.485Z,15.95
2018-09-30T17:14:01.666Z,15.87
2018-09-30T17:16:29.934Z,15.80
2018-09-30T17:18:58.192Z,15.78
2018-09-30T17:21:26.403Z,15.74
2018-09-30T17:23:54.598Z,15.73
2018-09-30T17:26:22.838Z,15.68
2018-09-30T17:28:51.063Z,15.65
2018-09-30T17:31:19.369Z,15.61
2018-09-30T17:33:47.532Z,15.62
2018-09-30T17:36:15.731Z,15.62
2018-09-30T17:38:43.911Z,15.61
2018-09-30T17:41:12.116Z,15.61
2018-09-30T17:43:40.267Z,15.56
2018-09-30T17:46:08.923Z,15.49
2018-09-30T17:48:37.080Z,15.43
2018-09-30T17:51:05.287Z,15.38
2018-09-30T17:53:33.514Z,15.33
2018-09-30T17:56:01.889Z,15.28
2018-09-30T17:58:30.110Z,15.22
2018-09-30T18:00:58.295Z,15.17
2018-09-30T18:03:26.485Z,15.14
2018-09-30T18:05:54.742Z,15.09
2018-09-30T18:08:22.966Z,15.07
2018-09-30T18:10:51.219Z,15.04
2018-09-30T18:13:19.343Z,15.02
2018-09-30T18:15:47.543Z,15.02
2018-09-30T18:18:15.726Z,15.00
2018-09-30T18:20:43.969Z,14.96
2018-09-30T18:23:12.150Z,14.91
2018-09-30T18:25:40.343Z,14.86
2018-09-30T18:28:09.018Z,14.83
2018-09-30T18:30:37.298Z,14.77
2018-09-30T18:33:05.496Z,14.72
2018-09-30T18:35:33.655Z,14.68
2018-09-30T18:38:01.956Z,14.63
2018-09-30T18:40:42.079Z,14.58
2018-09-30T18:43:10.765Z,14.51
2018-09-30T18:45:38.970Z,14.45
2018-09-30T18:48:07.718Z,14.40
2018-09-30T18:50:36.011Z,14.33
2018-09-30T18:53:04.308Z,14.24
2018-09-30T18:55:32.519Z,14.16
2018-09-30T18:58:01.155Z,14.09
2018-09-30T19:00:29.523Z,14.03
2018-09-30T19:02:57.691Z,13.98
2018-09-30T19:05:25.881Z,13.92
2018-09-30T19:07:54.107Z,13.90
2018-09-30T19:10:22.361Z,13.87
2018-09-30T19:12:50.522Z,13.82
2018-09-30T19:15:18.759Z,13.83
2018-09-30T19:17:47.139Z,13.85
2018-09-30T19:20:15.393Z,13.83
2018-09-30T19:22:43.649Z,13.80
2018-09-30T19:25:11.987Z,13.76
2018-09-30T19:27:40.123Z,13.71
2018-09-30T19:30:08.395Z,13.66
2018-09-30T19:32:36.521Z,13.63
2018-09-30T19:35:04.731Z,13.60
2018-09-30T19:37:32.915Z,13.57
2018-09-30T19:40:01.096Z,13.54
2018-09-30T19:42:29.314Z,13.48
2018-09-30T19:44:57.531Z,13.45
2018-09-30T19:47:25.747Z,13.43
2018-09-30T19:49:53.925Z,13.42
2018-09-30T19:52:22.784Z,13.45
2018-09-30T19:54:50.960Z,13.48
2018-09-30T19:57:19.151Z,13.55
2018-09-30T19:59:47.420Z,13.60
2018-09-30T20:02:15.574Z,13.62
2018-09-30T20:04:43.755Z,13.64
2018-09-30T20:07:11.928Z,13.68
2018-09-30T20:09:40.265Z,13.73
2018-09-30T20:12:08.643Z,13.80
2018-09-30T20:14:36.835Z,13.85
2018-09-30T20:17:05.880Z,13.85
2018-09-30T20:19:34.376Z,13.84
2018-09-30T20:22:02.806Z,13.83
2018-09-30T20:24:31.214Z,13.82
2018-09-30T20:26:59.614Z,13.82
2018-09-30T20:29:27.990Z,13.81
2018-09-30T20:31:56.290Z,13.80
2018-09-30T20:34:24.572Z,13.76
2018-09-30T20:36:52.944Z,13.72
2018-09-30T20:39:21.225Z,13.66
2018-09-30T20:41:49.521Z,13.58
2018-09-30T20:44:17.767Z,13.53
2018-09-30T20:46:46.602Z,13.51
2018-09-30T20:49:14.834Z,13.48
2018-09-30T20:51:43.089Z,13.46
2018-09-30T20:54:11.986Z,13.42
2018-09-30T20:56:40.304Z,13.38
2018-09-30T20:59:08.562Z,13.39
2018-09-30T21:01:36.837Z,13.44
2018-09-30T21:04:05.141Z,13.47
2018-09-30T21:06:37.583Z,13.50
2018-09-30T21:09:09.138Z,13.50
2018-09-30T21:11:37.409Z,13.50
2018-09-30T21:14:05.858Z,13.48
2018-09-30T21:16:34.200Z,13.47
2018-09-30T21:19:02.559Z,13.44
2018-09-30T21:21:30.893Z,13.43
2018-09-30T21:23:59.215Z,13.47
2018-09-30T21:26:27.567Z,13.53
2018-09-30T21:28:55.836Z,13.56
2018-09-30T21:31:24.172Z,13.56
2018-09-30T21:33:52.517Z,13.54
2018-09-30T21:36:20.794Z,13.51
2018-09-30T21:38:49.074Z,13.50
2018-09-30T21:41:17.394Z,13.50
2018-09-30T21:43:45.642Z,13.46
2018-09-30T21:46:13.885Z,13.45
2018-09-30T21:48:42.217Z,13.46
2018-09-30T21:51:10.470Z,13.52
2018-09-30T21:53:38.832Z,13.54
2018-09-30T21:56:07.212Z,13.56
2018-09-30T21:58:35.474Z,13.59
2018-09-30T22:01:04.867Z,13.60
2018-09-30T22:03:33.152Z,13.60
2018-09-30T22:06:01.667Z,13.58
2018-09-30T22:08:29.958Z,13.60
2018-09-30T22:10:58.252Z,13.62
2018-09-30T22:13:26.558Z,13.61
2018-09-30T22:15:54.868Z,13.59
2018-09-30T22:18:23.157Z,13.60
2018-09-30T22:20:51.470Z,13.61
2018-09-30T22:23:19.773Z,13.60
2018-09-30T22:25:48.080Z,13.57
2018-09-30T22:28:16.370Z,13.56
2018-09-30T22:30:44.639Z,13.55
2018-09-30T22:33:12.925Z,13.54
2018-09-30T22:35:41.239Z,13.55
2018-09-30T22:38:09.590Z,13.58
2018-09-30T22:40:37.910Z,13.63
2018-09-30T22:43:06.256Z,13.67
2018-09-30T22:45:34.586Z,13.69
2018-09-30T22:48:02.885Z,13.72
2018-09-30T22:50:31.174Z,13.75
2018-09-30T22:52:59.525Z,13.77
2018-09-30T22:55:27.846Z,13.79
2018-09-30T22:57:56.160Z,13.80
2018-09-30T23:00:24.459Z,13.81
2018-09-30T23:02:52.733Z,13.82
2018-09-30T23:05:21.021Z,13.80
2018-09-30T23:07:49.309Z,13.83
2018-09-30T23:10:17.565Z,13.84
2018-09-30T23:12:45.854Z,13.86
2018-09-30T23:15:14.229Z,13.87
2018-09-30T23:17:42.519Z,13.85
2018-09-30T23:20:15.094Z,13.84
2018-09-30T23:22:43.444Z,13.83
2018-09-30T23:25:11.801Z,13.81
2018-09-30T23:27:40.166Z,13.81
2018-09-30T23:30:08.507Z,13.80
2018-09-30T23:32:37.076Z,13.80
2018-09-30T23:35:05.406Z,13.82
2018-09-30T23:37:33.763Z,13.83
2018-09-30T23:40:02.139Z,13.84
2018-09-30T23:42:30.481Z,13.87
2018-09-30T23:44:58.964Z,13.89
2018-09-30T23:47:27.337Z,13.91
2018-09-30T23:49:55.622Z,13.95
2018-09-30T23:52:23.897Z,13.96
2018-09-30T23:54:52.485Z,13.98
2018-09-30T23:57:20.825Z,13.99
2018-09-30T23:59:49.507Z,14.00
